sensor_id;sensor_type;location;lat;lon;timestamp;temperature;humidity
31735;DHT22;18313;48.518;9.124;2023-03-14T00:01:55;10.20;99.90
31735;DHT22;18313;48.518;9.124;2023-03-14T00:04:22;10.20;99.90
31735;DHT22;18313;48.518;9.124;2023-03-14T00:06:50;10.30;99.90
31735;DHT22;18313;48.518;9.124;2023-03-14T00:09:17;10.30;99.90
31735;DHT22;18313;48.518;9.124;2023-03-14T00:11:44;10.30;99.90
31735;DHT22;18313;48.518;9.124;2023-03-14T00:14:12;10.20;99.90
31735;DHT22;18313;48.518;9.124;2023-03-14T00:16:39;10.30;99.90
31735;DHT22;18313;48.518;9.124;2023-03-14T00:19:06;10.40;99.90
31735;DHT22;18313;48.518;9.124;2023-03-14T00:21:33;10.40;99.90
31735;DHT22;18313;48.518;9.124;2023-03-14T00:24:01;10.40;99.90
31735;DHT22;18313;48.518;9.124;2023-03-14T00:26:28;10.40;99.90
31735;DHT22;18313;48.518;9.124;2023-03-14T00:28:55;10.50;99.90
31735;DHT22;18313;48.518;9.124;2023-03-14T00:31:22;10.50;99.90
31735;DHT22;18313;48.518;9.124;2023-03-14T00:33:52;10.50;99.90
31735;DHT22;18313;48.518;9.124;2023-03-14T00:36:20;10.50;99.90
31735;DHT22;18313;48.518;9.124;2023-03-14T00:38:49;10.50;99.90
31735;DHT22;18313;48.518;9.124;2023-03-14T00:41:19;10.40;99.90
31735;DHT22;18313;48.518;9.124;2023-03-14T00:43:47;10.40;99.90
31735;DHT22;18313;48.518;9.124;2023-03-14T00:46:14;10.40;99.90
31735;DHT22;18313;48.518;9.124;2023-03-14T00:48:41;10.40;99.90
31735;DHT22;18313;48.518;9.124;2023-03-14T00:51:09;10.40;99.90
31735;DHT22;18313;48.518;9.124;2023-03-14T00:53:37;10.40;99.90
31735;DHT22;18313;48.518;9.124;2023-03-14T00:56:06;10.40;99.90
31735;DHT22;18313;48.518;9.124;2023-03-14T00:58:33;10.30;99.90
31735;DHT22;18313;48.518;9.124;2023-03-14T01:01:06;10.30;99.90
31735;DHT22;18313;48.518;9.124;2023-03-14T01:03:33;10.30;99.90
31735;DHT22;18313;48.518;9.124;2023-03-14T01:06:21;10.30;99.90
31735;DHT22;18313;48.518;9.124;2023-03-14T01:08:48;10.20;99.90
31735;DHT22;18313;48.518;9.124;2023-03-14T01:11:27;10.20;99.90
31735;DHT22;18313;48.518;9.124;2023-03-14T01:13:54;10.20;99.90
31735;DHT22;18313;48.518;9.124;2023-03-14T01:16:24;10.00;99.90
31735;DHT22;18313;48.518;9.124;2023-03-14T01:18:51;10.10;99.90
31735;DHT22;18313;48.518;9.124;2023-03-14T01:21:20;10.00;99.90
31735;DHT22;18313;48.518;9.124;2023-03-14T01:23:48;10.10;99.90
31735;DHT22;18313;48.518;9.124;2023-03-14T01:26:19;10.10;99.90
31735;DHT22;18313;48.518;9.124;2023-03-14T01:28:48;10.10;99.90
31735;DHT22;18313;48.518;9.124;2023-03-14T01:31:16;10.10;99.90
31735;DHT22;18313;48.518;9.124;2023-03-14T01:33:45;10.10;99.90
31735;DHT22;18313;48.518;9.124;2023-03-14T01:36:13;10.10;99.90
31735;DHT22;18313;48.518;9.124;2023-03-14T01:38:40;10.10;99.90
31735;DHT22;18313;48.518;9.124;2023-03-14T01:41:11;10.00;99.90
31735;DHT22;18313;48.518;9.124;2023-03-14T01:43:39;10.00;99.90
31735;DHT22;18313;48.518;9.124;2023-03-14T01:48:50;10.00;99.90
31735;DHT22;18313;48.518;9.124;2023-03-14T01:54:20;10.00;99.90
31735;DHT22;18313;48.518;9.124;2023-03-14T01:56:54;10.10;99.90
31735;DHT22;18313;48.518;9.124;2023-03-14T01:59:23;10.10;99.90
31735;DHT22;18313;48.518;9.124;2023-03-14T02:01:52;10.10;99.90
31735;DHT22;18313;48.518;9.124;2023-03-14T02:04:23;10.20;99.90
31735;DHT22;18313;48.518;9.124;2023-03-14T02:06:56;10.20;99.90
31735;DHT22;18313;48.518;9.124;2023-03-14T02:09:24;10.20;99.90
31735;DHT22;18313;48.518;9.124;2023-03-14T02:11:51;10.20;99.90
31735;DHT22;18313;48.518;9.124;2023-03-14T02:14:33;10.20;99.90
31735;DHT22;18313;48.518;9.124;2023-03-14T02:17:02;10.20;99.90
31735;DHT22;18313;48.518;9.124;2023-03-14T02:19:40;10.20;99.90
31735;DHT22;18313;48.518;9.124;2023-03-14T02:22:13;10.20;99.90
31735;DHT22;18313;48.518;9.124;2023-03-14T02:27:16;10.20;99.90
31735;DHT22;18313;48.518;9.124;2023-03-14T02:29:54;10.20;99.90
31735;DHT22;18313;48.518;9.124;2023-03-14T02:32:25;10.20;99.90
31735;DHT22;18313;48.518;9.124;2023-03-14T02:34:56;10.20;99.90
31735;DHT22;18313;48.518;9.124;2023-03-14T02:37:36;10.20;99.90
31735;DHT22;18313;48.518;9.124;2023-03-14T02:40:06;10.20;99.90
31735;DHT22;18313;48.518;9.124;2023-03-14T02:42:33;10.20;99.90
31735;DHT22;18313;48.518;9.124;2023-03-14T02:47:40;10.20;99.90
31735;DHT22;18313;48.518;9.124;2023-03-14T02:50:13;10.20;99.90
31735;DHT22;18313;48.518;9.124;2023-03-14T02:52:41;10.10;99.90
31735;DHT22;18313;48.518;9.124;2023-03-14T02:55:08;10.10;99.90
31735;DHT22;18313;48.518;9.124;2023-03-14T02:57:36;10.10;99.90
31735;DHT22;18313;48.518;9.124;2023-03-14T03:00:04;10.10;99.90
31735;DHT22;18313;48.518;9.124;2023-03-14T03:02:32;10.10;99.90
31735;DHT22;18313;48.518;9.124;2023-03-14T03:04:59;10.00;99.90
31735;DHT22;18313;48.518;9.124;2023-03-14T03:07:26;10.00;99.90
31735;DHT22;18313;48.518;9.124;2023-03-14T03:09:53;10.00;99.90
31735;DHT22;18313;48.518;9.124;2023-03-14T03:12:21;10.00;99.90
31735;DHT22;18313;48.518;9.124;2023-03-14T03:14:48;10.00;99.90
31735;DHT22;18313;48.518;9.124;2023-03-14T03:17:15;9.90;99.90
31735;DHT22;18313;48.518;9.124;2023-03-14T03:19:42;9.90;99.90
31735;DHT22;18313;48.518;9.124;2023-03-14T03:22:10;9.90;99.90
31735;DHT22;18313;48.518;9.124;2023-03-14T03:24:36;9.90;99.90
31735;DHT22;18313;48.518;9.124;2023-03-14T03:27:03;9.90;99.90
31735;DHT22;18313;48.518;9.124;2023-03-14T03:29:30;9.90;99.90
31735;DHT22;18313;48.518;9.124;2023-03-14T03:31:57;9.90;99.90
31735;DHT22;18313;48.518;9.124;2023-03-14T03:34:25;9.90;99.90
31735;DHT22;18313;48.518;9.124;2023-03-14T03:36:56;9.80;99.90
31735;DHT22;18313;48.518;9.124;2023-03-14T03:39:23;9.70;99.90
31735;DHT22;18313;48.518;9.124;2023-03-14T03:41:50;9.80;99.90
31735;DHT22;18313;48.518;9.124;2023-03-14T03:44:17;9.80;99.90
31735;DHT22;18313;48.518;9.124;2023-03-14T03:46:44;9.70;99.90
31735;DHT22;18313;48.518;9.124;2023-03-14T03:49:11;9.70;99.90
31735;DHT22;18313;48.518;9.124;2023-03-14T03:51:39;9.70;99.90
31735;DHT22;18313;48.518;9.124;2023-03-14T03:54:06;9.60;99.90
31735;DHT22;18313;48.518;9.124;2023-03-14T03:56:33;9.60;99.90
31735;DHT22;18313;48.518;9.124;2023-03-14T03:59:01;9.60;99.90
31735;DHT22;18313;48.518;9.124;2023-03-14T04:01:28;9.60;99.90
31735;DHT22;18313;48.518;9.124;2023-03-14T04:03:55;9.60;99.90
31735;DHT22;18313;48.518;9.124;2023-03-14T04:06:23;9.50;99.90
31735;DHT22;18313;48.518;9.124;2023-03-14T04:08:50;9.50;99.90
31735;DHT22;18313;48.518;9.124;2023-03-14T04:11:18;9.50;99.90
31735;DHT22;18313;48.518;9.124;2023-03-14T04:13:45;9.50;99.90
31735;DHT22;18313;48.518;9.124;2023-03-14T04:16:23;9.50;99.90
31735;DHT22;18313;48.518;9.124;2023-03-14T04:18:52;9.50;99.90
31735;DHT22;18313;48.518;9.124;2023-03-14T04:21:19;9.50;99.90
31735;DHT22;18313;48.518;9.124;2023-03-14T04:23:46;9.40;99.90
31735;DHT22;18313;48.518;9.124;2023-03-14T04:26:14;9.40;99.90
31735;DHT22;18313;48.518;9.124;2023-03-14T04:28:41;9.40;99.90
31735;DHT22;18313;48.518;9.124;2023-03-14T04:31:11;9.40;99.90
31735;DHT22;18313;48.518;9.124;2023-03-14T04:33:39;9.30;99.90
31735;DHT22;18313;48.518;9.124;2023-03-14T04:36:06;9.30;99.90
31735;DHT22;18313;48.518;9.124;2023-03-14T04:38:34;9.30;99.90
31735;DHT22;18313;48.518;9.124;2023-03-14T04:41:03;9.30;99.90
31735;DHT22;18313;48.518;9.124;2023-03-14T04:43:30;9.30;99.90
31735;DHT22;18313;48.518;9.124;2023-03-14T04:45:57;9.20;99.90
31735;DHT22;18313;48.518;9.124;2023-03-14T04:48:26;9.30;99.90
31735;DHT22;18313;48.518;9.124;2023-03-14T04:50:54;9.20;99.90
31735;DHT22;18313;48.518;9.124;2023-03-14T04:53:21;9.20;99.90
31735;DHT22;18313;48.518;9.124;2023-03-14T04:55:53;9.20;99.90
31735;DHT22;18313;48.518;9.124;2023-03-14T04:58:21;9.30;99.90
31735;DHT22;18313;48.518;9.124;2023-03-14T05:00:49;9.30;99.90
31735;DHT22;18313;48.518;9.124;2023-03-14T05:03:17;9.30;99.90
31735;DHT22;18313;48.518;9.124;2023-03-14T05:05:45;9.30;99.90
31735;DHT22;18313;48.518;9.124;2023-03-14T05:08:12;9.30;99.90
31735;DHT22;18313;48.518;9.124;2023-03-14T05:10:39;9.30;99.90
31735;DHT22;18313;48.518;9.124;2023-03-14T05:13:07;9.30;99.90
31735;DHT22;18313;48.518;9.124;2023-03-14T05:15:33;9.30;99.90
31735;DHT22;18313;48.518;9.124;2023-03-14T05:18:01;9.30;99.90
31735;DHT22;18313;48.518;9.124;2023-03-14T05:20:28;9.30;99.90
31735;DHT22;18313;48.518;9.124;2023-03-14T05:22:54;9.30;99.90
31735;DHT22;18313;48.518;9.124;2023-03-14T05:25:22;9.30;99.90
31735;DHT22;18313;48.518;9.124;2023-03-14T05:27:49;9.30;99.90
31735;DHT22;18313;48.518;9.124;2023-03-14T05:30:16;9.30;99.90
31735;DHT22;18313;48.518;9.124;2023-03-14T05:32:43;9.30;99.90
31735;DHT22;18313;48.518;9.124;2023-03-14T05:35:10;9.30;99.90
31735;DHT22;18313;48.518;9.124;2023-03-14T05:37:37;9.30;99.90
31735;DHT22;18313;48.518;9.124;2023-03-14T05:40:05;9.40;99.90
31735;DHT22;18313;48.518;9.124;2023-03-14T05:42:33;9.40;99.90
31735;DHT22;18313;48.518;9.124;2023-03-14T05:45:00;9.40;99.90
31735;DHT22;18313;48.518;9.124;2023-03-14T05:47:27;9.40;99.90
31735;DHT22;18313;48.518;9.124;2023-03-14T05:49:54;9.50;99.90
31735;DHT22;18313;48.518;9.124;2023-03-14T05:52:21;9.50;99.90
31735;DHT22;18313;48.518;9.124;2023-03-14T05:54:49;9.50;99.90
31735;DHT22;18313;48.518;9.124;2023-03-14T05:57:16;9.50;99.90
31735;DHT22;18313;48.518;9.124;2023-03-14T05:59:42;9.50;99.90
31735;DHT22;18313;48.518;9.124;2023-03-14T06:02:10;9.50;99.90
31735;DHT22;18313;48.518;9.124;2023-03-14T06:04:37;9.40;99.90
31735;DHT22;18313;48.518;9.124;2023-03-14T06:07:04;9.50;99.90
31735;DHT22;18313;48.518;9.124;2023-03-14T06:09:32;9.40;99.90
31735;DHT22;18313;48.518;9.124;2023-03-14T06:11:59;9.40;99.90
31735;DHT22;18313;48.518;9.124;2023-03-14T06:14:27;9.40;99.90
31735;DHT22;18313;48.518;9.124;2023-03-14T06:16:54;9.40;99.90
31735;DHT22;18313;48.518;9.124;2023-03-14T06:19:21;9.40;99.90
31735;DHT22;18313;48.518;9.124;2023-03-14T06:21:48;9.40;99.90
31735;DHT22;18313;48.518;9.124;2023-03-14T06:24:16;9.40;99.90
31735;DHT22;18313;48.518;9.124;2023-03-14T06:26:43;9.40;99.90
31735;DHT22;18313;48.518;9.124;2023-03-14T06:29:10;9.30;99.90
31735;DHT22;18313;48.518;9.124;2023-03-14T06:31:37;9.40;99.90
31735;DHT22;18313;48.518;9.124;2023-03-14T06:34:05;9.50;99.90
31735;DHT22;18313;48.518;9.124;2023-03-14T06:36:32;9.50;99.90
31735;DHT22;18313;48.518;9.124;2023-03-14T06:39:00;9.50;99.90
31735;DHT22;18313;48.518;9.124;2023-03-14T06:41:31;9.50;99.90
31735;DHT22;18313;48.518;9.124;2023-03-14T06:43:59;9.60;99.90
31735;DHT22;18313;48.518;9.124;2023-03-14T06:46:26;9.60;99.90
31735;DHT22;18313;48.518;9.124;2023-03-14T06:48:54;9.70;99.90
31735;DHT22;18313;48.518;9.124;2023-03-14T06:51:21;9.70;99.90
31735;DHT22;18313;48.518;9.124;2023-03-14T06:53:48;9.70;99.90
31735;DHT22;18313;48.518;9.124;2023-03-14T06:56:15;9.70;99.90
31735;DHT22;18313;48.518;9.124;2023-03-14T06:58:43;9.70;99.90
31735;DHT22;18313;48.518;9.124;2023-03-14T07:01:25;9.80;99.90
31735;DHT22;18313;48.518;9.124;2023-03-14T07:03:54;9.80;99.90
31735;DHT22;18313;48.518;9.124;2023-03-14T07:06:22;9.90;99.90
31735;DHT22;18313;48.518;9.124;2023-03-14T07:08:49;10.00;99.90
31735;DHT22;18313;48.518;9.124;2023-03-14T07:11:16;10.10;99.90
31735;DHT22;18313;48.518;9.124;2023-03-14T07:13:44;10.20;99.90
31735;DHT22;18313;48.518;9.124;2023-03-14T07:16:11;10.20;99.90
31735;DHT22;18313;48.518;9.124;2023-03-14T07:18:38;10.20;99.90
31735;DHT22;18313;48.518;9.124;2023-03-14T07:21:06;10.20;99.90
31735;DHT22;18313;48.518;9.124;2023-03-14T07:23:34;10.30;99.90
31735;DHT22;18313;48.518;9.124;2023-03-14T07:26:02;10.30;99.90
31735;DHT22;18313;48.518;9.124;2023-03-14T07:28:29;10.30;99.90
31735;DHT22;18313;48.518;9.124;2023-03-14T07:30:56;10.30;99.90
31735;DHT22;18313;48.518;9.124;2023-03-14T07:33:23;10.30;99.90
31735;DHT22;18313;48.518;9.124;2023-03-14T07:35:51;10.40;99.90
31735;DHT22;18313;48.518;9.124;2023-03-14T07:38:18;10.50;99.90
31735;DHT22;18313;48.518;9.124;2023-03-14T07:40:50;10.60;99.90
31735;DHT22;18313;48.518;9.124;2023-03-14T07:43:17;10.70;99.90
31735;DHT22;18313;48.518;9.124;2023-03-14T07:45:47;10.90;99.90
31735;DHT22;18313;48.518;9.124;2023-03-14T07:48:25;10.90;99.90
31735;DHT22;18313;48.518;9.124;2023-03-14T07:50:54;11.00;99.90
31735;DHT22;18313;48.518;9.124;2023-03-14T07:53:22;11.00;99.90
31735;DHT22;18313;48.518;9.124;2023-03-14T07:55:51;11.10;99.90
31735;DHT22;18313;48.518;9.124;2023-03-14T07:58:19;11.10;99.90
31735;DHT22;18313;48.518;9.124;2023-03-14T08:00:49;11.00;99.90
31735;DHT22;18313;48.518;9.124;2023-03-14T08:03:16;11.00;99.90
31735;DHT22;18313;48.518;9.124;2023-03-14T08:05:45;11.10;99.90
31735;DHT22;18313;48.518;9.124;2023-03-14T08:08:13;11.20;99.90
31735;DHT22;18313;48.518;9.124;2023-03-14T08:10:40;11.30;99.90
31735;DHT22;18313;48.518;9.124;2023-03-14T08:13:09;11.30;99.90
31735;DHT22;18313;48.518;9.124;2023-03-14T08:15:37;11.30;99.90
31735;DHT22;18313;48.518;9.124;2023-03-14T08:18:04;11.30;99.90
31735;DHT22;18313;48.518;9.124;2023-03-14T08:20:32;11.30;99.90
31735;DHT22;18313;48.518;9.124;2023-03-14T08:23:00;11.30;99.90
31735;DHT22;18313;48.518;9.124;2023-03-14T08:25:28;11.30;99.90
31735;DHT22;18313;48.518;9.124;2023-03-14T08:27:55;11.40;99.90
31735;DHT22;18313;48.518;9.124;2023-03-14T08:30:23;11.30;99.90
31735;DHT22;18313;48.518;9.124;2023-03-14T08:32:51;11.40;99.90
31735;DHT22;18313;48.518;9.124;2023-03-14T08:35:18;11.60;99.90
31735;DHT22;18313;48.518;9.124;2023-03-14T08:37:45;11.60;99.90
31735;DHT22;18313;48.518;9.124;2023-03-14T08:40:13;11.70;99.90
31735;DHT22;18313;48.518;9.124;2023-03-14T08:42:40;11.80;99.90
31735;DHT22;18313;48.518;9.124;2023-03-14T08:45:08;11.80;99.90
31735;DHT22;18313;48.518;9.124;2023-03-14T08:47:36;11.80;99.90
31735;DHT22;18313;48.518;9.124;2023-03-14T08:50:04;11.90;99.90
31735;DHT22;18313;48.518;9.124;2023-03-14T08:52:32;11.90;99.90
31735;DHT22;18313;48.518;9.124;2023-03-14T08:54:59;12.10;99.90
31735;DHT22;18313;48.518;9.124;2023-03-14T08:57:26;12.30;99.90
31735;DHT22;18313;48.518;9.124;2023-03-14T08:59:54;12.60;99.90
31735;DHT22;18313;48.518;9.124;2023-03-14T09:02:25;12.80;99.90
31735;DHT22;18313;48.518;9.124;2023-03-14T09:04:53;12.90;99.90
31735;DHT22;18313;48.518;9.124;2023-03-14T09:07:20;13.00;99.90
31735;DHT22;18313;48.518;9.124;2023-03-14T09:09:47;13.00;99.90
31735;DHT22;18313;48.518;9.124;2023-03-14T09:12:15;12.90;99.90
31735;DHT22;18313;48.518;9.124;2023-03-14T09:14:42;12.70;99.90
31735;DHT22;18313;48.518;9.124;2023-03-14T09:17:09;12.60;99.90
31735;DHT22;18313;48.518;9.124;2023-03-14T09:19:36;12.30;99.90
31735;DHT22;18313;48.518;9.124;2023-03-14T09:22:03;11.90;99.90
31735;DHT22;18313;48.518;9.124;2023-03-14T09:24:30;11.60;99.90
31735;DHT22;18313;48.518;9.124;2023-03-14T09:26:57;11.50;99.90
31735;DHT22;18313;48.518;9.124;2023-03-14T09:29:24;11.50;99.90
31735;DHT22;18313;48.518;9.124;2023-03-14T09:31:51;11.50;99.90
31735;DHT22;18313;48.518;9.124;2023-03-14T09:34:19;11.40;99.90
31735;DHT22;18313;48.518;9.124;2023-03-14T09:36:46;11.30;99.90
31735;DHT22;18313;48.518;9.124;2023-03-14T09:39:13;11.20;99.90
31735;DHT22;18313;48.518;9.124;2023-03-14T09:41:44;11.10;99.90
31735;DHT22;18313;48.518;9.124;2023-03-14T09:44:19;11.10;99.90
31735;DHT22;18313;48.518;9.124;2023-03-14T09:46:51;11.10;99.90
31735;DHT22;18313;48.518;9.124;2023-03-14T09:49:31;11.10;99.90
31735;DHT22;18313;48.518;9.124;2023-03-14T09:52:02;11.10;99.90
31735;DHT22;18313;48.518;9.124;2023-03-14T09:57:21;11.10;99.90
31735;DHT22;18313;48.518;9.124;2023-03-14T09:59:52;11.10;99.90
31735;DHT22;18313;48.518;9.124;2023-03-14T10:02:23;11.10;99.90
31735;DHT22;18313;48.518;9.124;2023-03-14T10:04:52;11.10;99.90
31735;DHT22;18313;48.518;9.124;2023-03-14T10:07:29;11.10;99.90
31735;DHT22;18313;48.518;9.124;2023-03-14T10:09:56;11.10;99.90
31735;DHT22;18313;48.518;9.124;2023-03-14T10:12:35;11.10;99.90
31735;DHT22;18313;48.518;9.124;2023-03-14T10:15:08;11.20;99.90
31735;DHT22;18313;48.518;9.124;2023-03-14T10:17:43;11.30;99.90
31735;DHT22;18313;48.518;9.124;2023-03-14T10:20:27;11.40;99.90
31735;DHT22;18313;48.518;9.124;2023-03-14T10:23:16;11.50;99.90
31735;DHT22;18313;48.518;9.124;2023-03-14T10:26:00;11.50;99.90
31735;DHT22;18313;48.518;9.124;2023-03-14T10:28:47;11.60;99.90
31735;DHT22;18313;48.518;9.124;2023-03-14T10:31:15;11.60;99.90
31735;DHT22;18313;48.518;9.124;2023-03-14T10:33:58;11.60;99.90
31735;DHT22;18313;48.518;9.124;2023-03-14T10:36:29;11.70;99.90
31735;DHT22;18313;48.518;9.124;2023-03-14T10:41:50;11.80;99.90
31735;DHT22;18313;48.518;9.124;2023-03-14T10:44:23;11.90;99.90
31735;DHT22;18313;48.518;9.124;2023-03-14T10:46:59;11.90;99.90
31735;DHT22;18313;48.518;9.124;2023-03-14T10:49:34;11.90;99.90
31735;DHT22;18313;48.518;9.124;2023-03-14T10:52:23;11.90;99.90
31735;DHT22;18313;48.518;9.124;2023-03-14T10:55:12;12.00;99.90
31735;DHT22;18313;48.518;9.124;2023-03-14T10:57:40;12.00;99.90
31735;DHT22;18313;48.518;9.124;2023-03-14T11:00:20;12.00;99.90
31735;DHT22;18313;48.518;9.124;2023-03-14T11:02:58;12.00;99.90
31735;DHT22;18313;48.518;9.124;2023-03-14T11:05:57;12.00;99.90
31735;DHT22;18313;48.518;9.124;2023-03-14T11:08:46;11.90;99.90
31735;DHT22;18313;48.518;9.124;2023-03-14T11:11:25;11.90;99.90
31735;DHT22;18313;48.518;9.124;2023-03-14T11:14:22;11.90;99.90
31735;DHT22;18313;48.518;9.124;2023-03-14T11:17:20;11.80;99.90
31735;DHT22;18313;48.518;9.124;2023-03-14T11:23:18;11.60;99.90
31735;DHT22;18313;48.518;9.124;2023-03-14T11:25:57;11.40;99.90
31735;DHT22;18313;48.518;9.124;2023-03-14T11:28:37;11.40;99.90
31735;DHT22;18313;48.518;9.124;2023-03-14T11:31:18;11.40;99.90
31735;DHT22;18313;48.518;9.124;2023-03-14T11:36:22;11.30;99.90
31735;DHT22;18313;48.518;9.124;2023-03-14T11:38:53;11.30;99.90
31735;DHT22;18313;48.518;9.124;2023-03-14T11:41:39;11.20;99.90
31735;DHT22;18313;48.518;9.124;2023-03-14T11:44:25;11.10;99.90
31735;DHT22;18313;48.518;9.124;2023-03-14T11:47:17;11.00;99.90
31735;DHT22;18313;48.518;9.124;2023-03-14T11:50:15;10.90;99.90
31735;DHT22;18313;48.518;9.124;2023-03-14T11:52:48;10.90;99.90
31735;DHT22;18313;48.518;9.124;2023-03-14T11:55:19;10.90;99.90
31735;DHT22;18313;48.518;9.124;2023-03-14T11:57:49;11.00;99.90
31735;DHT22;18313;48.518;9.124;2023-03-14T12:00:21;11.00;99.90
31735;DHT22;18313;48.518;9.124;2023-03-14T12:02:58;11.00;99.90
31735;DHT22;18313;48.518;9.124;2023-03-14T12:05:56;11.00;99.90
31735;DHT22;18313;48.518;9.124;2023-03-14T12:08:59;10.90;99.90
31735;DHT22;18313;48.518;9.124;2023-03-14T12:11:39;10.80;99.90
31735;DHT22;18313;48.518;9.124;2023-03-14T12:14:26;10.80;99.90
31735;DHT22;18313;48.518;9.124;2023-03-14T12:17:04;10.90;99.90
31735;DHT22;18313;48.518;9.124;2023-03-14T12:19:38;10.80;99.90
31735;DHT22;18313;48.518;9.124;2023-03-14T12:22:13;10.80;99.90
31735;DHT22;18313;48.518;9.124;2023-03-14T12:24:47;10.50;99.90
31735;DHT22;18313;48.518;9.124;2023-03-14T12:30:35;10.10;99.90
31735;DHT22;18313;48.518;9.124;2023-03-14T12:38:08;9.90;99.90
31735;DHT22;18313;48.518;9.124;2023-03-14T12:40:47;9.90;99.90
31735;DHT22;18313;48.518;9.124;2023-03-14T12:43:27;10.00;99.90
31735;DHT22;18313;48.518;9.124;2023-03-14T12:46:22;10.20;99.90
31735;DHT22;18313;48.518;9.124;2023-03-14T12:51:35;10.30;99.90
31735;DHT22;18313;48.518;9.124;2023-03-14T12:57:54;10.40;99.90
31735;DHT22;18313;48.518;9.124;2023-03-14T13:00:16;10.60;99.90
31735;DHT22;18313;48.518;9.124;2023-03-14T13:02:44;11.00;99.90
31735;DHT22;18313;48.518;9.124;2023-03-14T13:05:13;11.40;99.90
31735;DHT22;18313;48.518;9.124;2023-03-14T13:10:29;11.60;99.90
31735;DHT22;18313;48.518;9.124;2023-03-14T13:13:25;11.30;99.90
31735;DHT22;18313;48.518;9.124;2023-03-14T13:15:59;11.00;99.90
31735;DHT22;18313;48.518;9.124;2023-03-14T13:18:39;10.70;99.90
31735;DHT22;18313;48.518;9.124;2023-03-14T13:21:17;10.70;99.90
31735;DHT22;18313;48.518;9.124;2023-03-14T13:24:03;10.50;99.90
31735;DHT22;18313;48.518;9.124;2023-03-14T13:26:39;10.50;99.90
31735;DHT22;18313;48.518;9.124;2023-03-14T13:29:22;10.40;99.90
31735;DHT22;18313;48.518;9.124;2023-03-14T13:31:54;10.20;99.90
31735;DHT22;18313;48.518;9.124;2023-03-14T13:36:54;10.20;99.90
31735;DHT22;18313;48.518;9.124;2023-03-14T13:39:23;10.20;99.90
31735;DHT22;18313;48.518;9.124;2023-03-14T13:42:00;10.20;99.90
31735;DHT22;18313;48.518;9.124;2023-03-14T13:44:39;10.20;99.90
31735;DHT22;18313;48.518;9.124;2023-03-14T13:47:15;10.20;99.90
31735;DHT22;18313;48.518;9.124;2023-03-14T13:49:43;10.00;99.90
31735;DHT22;18313;48.518;9.124;2023-03-14T13:52:31;10.00;99.90
31735;DHT22;18313;48.518;9.124;2023-03-14T13:55:00;9.90;99.90
31735;DHT22;18313;48.518;9.124;2023-03-14T13:57:27;9.90;99.60
31735;DHT22;18313;48.518;9.124;2023-03-14T14:00:16;9.80;99.60
31735;DHT22;18313;48.518;9.124;2023-03-14T14:02:44;9.70;99.30
31735;DHT22;18313;48.518;9.124;2023-03-14T14:05:12;9.60;99.80
31735;DHT22;18313;48.518;9.124;2023-03-14T14:07:40;9.60;99.80
31735;DHT22;18313;48.518;9.124;2023-03-14T14:10:12;9.60;99.40
31735;DHT22;18313;48.518;9.124;2023-03-14T14:12:49;9.60;99.20
31735;DHT22;18313;48.518;9.124;2023-03-14T14:15:26;9.50;99.20
31735;DHT22;18313;48.518;9.124;2023-03-14T14:17:57;9.50;98.90
31735;DHT22;18313;48.518;9.124;2023-03-14T14:20:32;9.50;98.60
31735;DHT22;18313;48.518;9.124;2023-03-14T14:23:07;9.50;98.40
31735;DHT22;18313;48.518;9.124;2023-03-14T14:25:34;9.50;98.90
31735;DHT22;18313;48.518;9.124;2023-03-14T14:28:15;9.40;98.80
31735;DHT22;18313;48.518;9.124;2023-03-14T14:30:45;9.30;98.70
31735;DHT22;18313;48.518;9.124;2023-03-14T14:33:21;9.40;98.80
31735;DHT22;18313;48.518;9.124;2023-03-14T14:35:51;9.40;98.80
31735;DHT22;18313;48.518;9.124;2023-03-14T14:38:19;9.40;98.90
31735;DHT22;18313;48.518;9.124;2023-03-14T14:40:50;9.40;98.30
31735;DHT22;18313;48.518;9.124;2023-03-14T14:43:24;9.30;98.40
31735;DHT22;18313;48.518;9.124;2023-03-14T14:45:54;9.30;98.40
31735;DHT22;18313;48.518;9.124;2023-03-14T14:48:24;9.30;97.70
31735;DHT22;18313;48.518;9.124;2023-03-14T14:50:58;9.20;98.00
31735;DHT22;18313;48.518;9.124;2023-03-14T14:53:36;9.20;98.00
31735;DHT22;18313;48.518;9.124;2023-03-14T14:58:35;9.20;97.90
31735;DHT22;18313;48.518;9.124;2023-03-14T15:01:08;9.20;98.30
31735;DHT22;18313;48.518;9.124;2023-03-14T15:03:39;9.30;99.00
31735;DHT22;18313;48.518;9.124;2023-03-14T15:06:10;9.40;99.00
31735;DHT22;18313;48.518;9.124;2023-03-14T15:08:38;9.30;98.40
31735;DHT22;18313;48.518;9.124;2023-03-14T15:11:08;9.30;97.90
31735;DHT22;18313;48.518;9.124;2023-03-14T15:13:36;9.50;97.70
31735;DHT22;18313;48.518;9.124;2023-03-14T15:16:04;9.60;98.50
31735;DHT22;18313;48.518;9.124;2023-03-14T15:18:35;9.70;97.30
31735;DHT22;18313;48.518;9.124;2023-03-14T15:21:02;9.70;96.90
31735;DHT22;18313;48.518;9.124;2023-03-14T15:23:29;9.60;97.10
31735;DHT22;18313;48.518;9.124;2023-03-14T15:25:56;9.70;97.10
31735;DHT22;18313;48.518;9.124;2023-03-14T15:28:25;9.60;96.60
31735;DHT22;18313;48.518;9.124;2023-03-14T15:30:55;9.60;96.50
31735;DHT22;18313;48.518;9.124;2023-03-14T15:33:24;9.60;97.40
31735;DHT22;18313;48.518;9.124;2023-03-14T15:35:53;9.50;96.20
31735;DHT22;18313;48.518;9.124;2023-03-14T15:38:21;9.50;96.50
31735;DHT22;18313;48.518;9.124;2023-03-14T15:40:51;9.40;97.10
31735;DHT22;18313;48.518;9.124;2023-03-14T15:43:18;9.60;97.10
31735;DHT22;18313;48.518;9.124;2023-03-14T15:45:46;9.80;95.90
31735;DHT22;18313;48.518;9.124;2023-03-14T15:48:22;9.90;96.40
31735;DHT22;18313;48.518;9.124;2023-03-14T15:50:49;10.00;96.30
31735;DHT22;18313;48.518;9.124;2023-03-14T15:53:16;9.80;97.00
31735;DHT22;18313;48.518;9.124;2023-03-14T15:55:43;9.70;97.20
31735;DHT22;18313;48.518;9.124;2023-03-14T15:58:16;9.50;97.00
31735;DHT22;18313;48.518;9.124;2023-03-14T16:00:47;9.40;97.60
31735;DHT22;18313;48.518;9.124;2023-03-14T16:03:15;9.30;97.80
31735;DHT22;18313;48.518;9.124;2023-03-14T16:05:42;9.10;98.30
31735;DHT22;18313;48.518;9.124;2023-03-14T16:08:09;9.00;98.20
31735;DHT22;18313;48.518;9.124;2023-03-14T16:10:36;8.90;98.40
31735;DHT22;18313;48.518;9.124;2023-03-14T16:13:05;8.90;98.80
31735;DHT22;18313;48.518;9.124;2023-03-14T16:15:32;8.90;99.20
31735;DHT22;18313;48.518;9.124;2023-03-14T16:17:59;8.80;99.20
31735;DHT22;18313;48.518;9.124;2023-03-14T16:20:41;8.80;99.00
31735;DHT22;18313;48.518;9.124;2023-03-14T16:23:14;8.90;99.90
31735;DHT22;18313;48.518;9.124;2023-03-14T16:25:43;8.80;99.30
31735;DHT22;18313;48.518;9.124;2023-03-14T16:28:10;8.70;99.50
31735;DHT22;18313;48.518;9.124;2023-03-14T16:30:38;8.80;99.90
31735;DHT22;18313;48.518;9.124;2023-03-14T16:33:05;8.80;98.90
31735;DHT22;18313;48.518;9.124;2023-03-14T16:35:39;8.70;99.00
31735;DHT22;18313;48.518;9.124;2023-03-14T16:38:07;8.70;99.60
31735;DHT22;18313;48.518;9.124;2023-03-14T16:40:34;8.60;99.60
31735;DHT22;18313;48.518;9.124;2023-03-14T16:43:01;8.60;99.80
31735;DHT22;18313;48.518;9.124;2023-03-14T16:45:49;8.70;99.90